createdAt,value
2022-11-02T00:01:42.848Z,13.84
2022-11-02T00:08:21.094Z,14.14
2022-11-02T00:13:19.517Z,13.96
2022-11-02T00:18:20.466Z,14.00
2022-11-02T00:23:27.342Z,14.07
2022-11-02T00:28:19.645Z,14.06
2022-11-02T00:33:20.589Z,14.04
2022-11-02T00:38:19.339Z,13.88
2022-11-02T00:43:19.424Z,13.44
2022-11-02T00:48:22.409Z,13.38
2022-11-02T00:53:28.416Z,13.39
2022-11-02T00:58:22.624Z,13.55
2022-11-02T01:03:20.568Z,13.51
2022-11-02T01:08:30.880Z,13.64
2022-11-02T01:13:19.243Z,13.66
2022-11-02T01:18:19.369Z,13.71
2022-11-02T01:23:31.345Z,13.82
2022-11-02T01:30:03.160Z,13.71
2022-11-02T01:36:42.066Z,13.63
2022-11-02T01:41:42.211Z,13.51
2022-11-02T01:46:54.150Z,13.64
2022-11-02T01:51:42.345Z,13.78
2022-11-02T01:56:42.044Z,13.84
2022-11-02T02:01:42.246Z,13.81
2022-11-02T02:06:42.284Z,13.89
2022-11-02T02:12:03.570Z,13.89
2022-11-02T02:16:41.832Z,13.85
2022-11-02T02:34:42.891Z,13.57
2022-11-02T02:44:47.908Z,13.52
2022-11-02T02:53:09.477Z,13.78
2022-11-02T02:58:21.692Z,13.54
2022-11-02T03:03:07.961Z,13.64
2022-11-02T03:08:08.848Z,13.55
2022-11-02T03:13:08.271Z,13.59
2022-11-02T03:18:07.572Z,13.60
2022-11-02T03:26:51.339Z,13.55
2022-11-02T03:31:39.775Z,13.52
2022-11-02T03:36:39.419Z,13.55
2022-11-02T03:41:44.477Z,13.54
2022-11-02T03:46:38.814Z,13.44
2022-11-02T03:51:49.819Z,13.28
2022-11-02T03:59:52.199Z,13.03
2022-11-02T04:08:52.076Z,13.05
2022-11-02T04:15:22.789Z,13.01
2022-11-02T04:20:23.369Z,12.90
2022-11-02T04:25:22.778Z,12.82
2022-11-02T04:30:25.352Z,12.64
2022-11-02T04:35:21.835Z,12.71
2022-11-02T04:40:52.276Z,12.70
2022-11-02T04:45:36.399Z,12.71
2022-11-02T04:50:23.985Z,12.75
2022-11-02T05:01:40.723Z,12.97
2022-11-02T05:06:20.221Z,12.79
2022-11-02T05:11:19.645Z,12.89
2022-11-02T05:16:19.012Z,13.07
2022-11-02T05:21:18.978Z,13.17
2022-11-02T05:26:19.411Z,13.12
2022-11-02T05:31:18.758Z,13.29
2022-11-02T05:36:19.995Z,13.44
2022-11-02T05:41:23.726Z,13.46
2022-11-02T05:46:18.530Z,13.30
2022-11-02T05:51:18.549Z,13.23
2022-11-02T05:56:24.597Z,13.23
2022-11-02T06:01:23.894Z,13.30
2022-11-02T06:06:18.314Z,13.38
2022-11-02T06:11:18.236Z,13.36
2022-11-02T06:16:22.765Z,13.38
2022-11-02T06:21:19.375Z,13.33
2022-11-02T06:26:18.183Z,13.07
2022-11-02T06:31:18.237Z,13.08
2022-11-02T06:36:18.421Z,13.08
2022-11-02T06:41:18.000Z,13.05
2022-11-02T06:46:19.075Z,12.87
2022-11-02T06:51:31.026Z,13.01
2022-11-02T06:56:19.069Z,13.20
2022-11-02T07:01:19.333Z,13.19
2022-11-02T07:06:24.352Z,13.30
2022-11-02T07:11:22.476Z,13.28
2022-11-02T07:16:21.819Z,13.41
2022-11-02T07:23:26.862Z,13.44
2022-11-02T07:28:28.519Z,13.49
2022-11-02T07:33:25.563Z,13.44
2022-11-02T07:38:26.779Z,13.57
2022-11-02T07:43:27.294Z,13.52
2022-11-02T07:51:54.620Z,13.41
2022-11-02T07:56:56.134Z,13.39
2022-11-02T08:01:53.981Z,13.39
2022-11-02T08:06:52.202Z,13.26
2022-11-02T08:11:53.668Z,13.32
2022-11-02T08:16:55.001Z,13.42
2022-11-02T08:22:03.274Z,13.30
2022-11-02T08:26:55.051Z,13.23
2022-11-02T08:32:13.870Z,13.63
2022-11-02T08:37:17.360Z,13.60
2022-11-02T08:41:52.521Z,13.92
2022-11-02T08:47:22.761Z,14.03
2022-11-02T08:51:53.952Z,14.15
2022-11-02T08:56:56.806Z,14.45
2022-11-02T09:01:54.233Z,14.21
2022-11-02T09:06:55.393Z,14.21
2022-11-02T09:11:54.792Z,14.22
2022-11-02T09:16:56.553Z,14.33
2022-11-02T09:22:13.416Z,14.68
2022-11-02T09:26:51.855Z,14.45
2022-11-02T09:32:00.332Z,14.91
2022-11-02T09:36:57.425Z,14.78
2022-11-02T09:41:53.561Z,15.14
2022-11-02T09:47:17.969Z,15.41
2022-11-02T09:51:52.401Z,15.46
2022-11-02T09:56:53.266Z,15.34
2022-11-02T10:01:52.344Z,15.76
2022-11-02T10:06:51.110Z,16.25
2022-11-02T10:11:57.131Z,15.72
2022-11-02T10:16:51.084Z,15.94
2022-11-02T10:21:55.575Z,16.00
2022-11-02T10:26:50.802Z,15.89
2022-11-02T10:31:50.671Z,15.78
2022-11-02T10:36:50.645Z,15.72
2022-11-02T10:41:51.728Z,16.00
2022-11-02T10:46:50.517Z,16.04
2022-11-02T10:51:50.849Z,15.90
2022-11-02T10:56:51.065Z,15.96
2022-11-02T11:01:50.471Z,16.25
2022-11-02T11:06:50.249Z,16.09
2022-11-02T11:11:50.715Z,15.94
2022-11-02T11:16:51.235Z,15.71
2022-11-02T11:21:50.080Z,15.92
2022-11-02T11:26:50.179Z,16.08
2022-11-02T11:31:49.970Z,16.31
2022-11-02T11:36:50.098Z,16.30
2022-11-02T11:41:51.349Z,15.94
2022-11-02T11:46:50.360Z,16.09
2022-11-02T11:51:50.208Z,16.01
2022-11-02T11:56:49.923Z,15.86
2022-11-02T12:01:50.109Z,16.11
2022-11-02T12:06:49.587Z,16.21
2022-11-02T12:15:21.795Z,16.61
2022-11-02T12:20:21.592Z,16.00
2022-11-02T12:25:21.572Z,15.94
2022-11-02T12:30:21.484Z,15.86
2022-11-02T12:35:30.080Z,16.09
2022-11-02T12:40:22.422Z,16.08
2022-11-02T12:45:21.330Z,16.28
2022-11-02T12:50:21.267Z,16.08
2022-11-02T12:55:21.208Z,16.21
2022-11-02T13:00:21.169Z,16.28
2022-11-02T13:05:21.175Z,16.20
2022-11-02T13:10:21.042Z,16.23
2022-11-02T13:15:21.021Z,16.14
2022-11-02T13:20:20.951Z,15.78
2022-11-02T13:25:20.887Z,15.59
2022-11-02T13:30:20.836Z,15.44
2022-11-02T13:35:20.794Z,15.43
2022-11-02T13:40:20.720Z,15.29
2022-11-02T13:45:20.750Z,15.01
2022-11-02T13:50:20.645Z,15.17
2022-11-02T13:55:20.567Z,15.16
2022-11-02T14:00:20.512Z,15.06
2022-11-02T14:05:20.447Z,14.99
2022-11-02T14:10:20.390Z,14.98
2022-11-02T14:15:20.339Z,15.03
2022-11-02T14:20:20.282Z,15.17
2022-11-02T14:25:20.223Z,15.01
2022-11-02T14:30:20.221Z,14.95
2022-11-02T14:35:20.125Z,15.01
2022-11-02T14:40:20.048Z,15.02
2022-11-02T14:45:20.030Z,15.02
2022-11-02T14:50:19.953Z,14.81
2022-11-02T14:55:19.897Z,14.78
2022-11-02T15:00:19.869Z,14.58
2022-11-02T15:05:19.806Z,14.62
2022-11-02T15:10:19.746Z,14.54
2022-11-02T15:15:19.680Z,14.37
2022-11-02T15:20:19.640Z,14.43
2022-11-02T15:25:19.597Z,14.28
2022-11-02T15:30:22.590Z,14.12
2022-11-02T15:35:20.480Z,13.89
2022-11-02T15:40:19.436Z,13.70
2022-11-02T15:45:42.197Z,13.54
2022-11-02T15:50:20.298Z,13.36
2022-11-02T15:55:19.262Z,13.22
2022-11-02T16:00:19.184Z,13.19
2022-11-02T16:05:19.163Z,13.05
2022-11-02T16:10:19.078Z,12.90
2022-11-02T16:15:19.031Z,12.78
2022-11-02T16:20:18.968Z,12.56
2022-11-02T16:25:18.915Z,12.42
2022-11-02T16:30:18.874Z,12.21
2022-11-02T16:35:18.803Z,12.20
2022-11-02T16:40:18.752Z,12.10
2022-11-02T16:45:18.733Z,11.99
2022-11-02T16:50:18.643Z,11.82
2022-11-02T16:55:19.614Z,11.69
2022-11-02T17:00:18.550Z,11.60
2022-11-02T17:05:18.495Z,11.52
2022-11-02T17:10:18.530Z,11.39
2022-11-02T17:15:18.412Z,11.28
2022-11-02T17:20:18.353Z,11.24
2022-11-02T17:25:18.312Z,11.09
2022-11-02T17:30:18.218Z,11.02
2022-11-02T17:35:20.869Z,10.99
2022-11-02T17:40:19.096Z,11.15
2022-11-02T17:45:18.055Z,11.04
2022-11-02T17:50:18.006Z,11.22
2022-11-02T17:55:17.987Z,11.43
2022-11-02T18:00:17.880Z,11.52
2022-11-02T18:05:17.828Z,11.61
2022-11-02T18:10:17.770Z,11.69
2022-11-02T18:20:47.484Z,11.91
2022-11-02T18:25:48.629Z,11.88
2022-11-02T18:30:46.875Z,12.09
2022-11-02T18:35:46.844Z,12.13
2022-11-02T18:40:46.805Z,12.21
2022-11-02T18:45:48.469Z,12.34
2022-11-02T18:50:46.758Z,12.20
2022-11-02T18:55:46.608Z,12.39
2022-11-02T19:00:46.934Z,12.37
2022-11-02T19:05:46.687Z,12.32
2022-11-02T19:10:46.488Z,12.37
2022-11-02T19:15:46.525Z,12.21
2022-11-02T19:20:46.721Z,12.07
2022-11-02T19:25:46.496Z,12.17
2022-11-02T19:30:46.301Z,12.23
2022-11-02T19:35:46.238Z,12.23
2022-11-02T19:40:47.358Z,12.39
2022-11-02T19:45:48.180Z,12.47
2022-11-02T19:50:47.200Z,12.47
2022-11-02T19:55:45.997Z,12.46
2022-11-02T20:00:47.173Z,12.42
2022-11-02T20:05:45.838Z,12.24
2022-11-02T20:10:47.027Z,12.42
2022-11-02T20:15:45.722Z,12.19
2022-11-02T20:20:45.688Z,12.28
2022-11-02T20:25:47.073Z,12.46
2022-11-02T20:30:45.859Z,12.31
2022-11-02T20:35:45.520Z,12.41
2022-11-02T20:40:47.532Z,12.53
2022-11-02T20:45:45.437Z,12.46
2022-11-02T20:50:45.481Z,12.46
2022-11-02T20:55:45.459Z,12.32
2022-11-02T21:00:45.529Z,12.16
2022-11-02T21:05:45.284Z,12.07
2022-11-02T21:10:45.468Z,12.23
2022-11-02T21:15:45.318Z,12.19
2022-11-02T21:20:45.136Z,12.24
2022-11-02T21:25:44.982Z,12.16
2022-11-02T21:30:45.014Z,12.19
2022-11-02T21:35:46.197Z,12.23
2022-11-02T21:40:44.805Z,12.32
2022-11-02T21:45:45.260Z,12.35
2022-11-02T21:50:44.613Z,12.29
2022-11-02T21:55:45.530Z,12.24
2022-11-02T22:00:53.991Z,12.46
2022-11-02T22:05:44.543Z,12.39
2022-11-02T22:10:44.615Z,12.35
2022-11-02T22:15:44.415Z,12.27
2022-11-02T22:20:44.449Z,12.28
2022-11-02T22:25:44.398Z,12.09
2022-11-02T22:30:45.271Z,12.07
2022-11-02T22:35:44.544Z,12.19
2022-11-02T22:40:44.635Z,12.10
2022-11-02T22:45:44.124Z,12.35
2022-11-02T22:50:44.156Z,12.45
2022-11-02T22:55:44.253Z,12.32
2022-11-02T23:00:44.152Z,12.42
2022-11-02T23:05:43.936Z,12.49
2022-11-02T23:10:43.913Z,12.35
2022-11-02T23:15:43.670Z,12.35
2022-11-02T23:20:43.615Z,12.39
2022-11-02T23:25:43.692Z,12.49
2022-11-02T23:30:43.559Z,12.56
2022-11-02T23:35:43.550Z,12.59
2022-11-02T23:40:43.645Z,12.53
2022-11-02T23:45:43.495Z,12.38
2022-11-02T23:50:43.355Z,12.35
2022-11-02T23:55:43.467Z,12.29
